sensor_id;sensor_type;location;lat;lon;timestamp;temperature;humidity
48686;DHT22;34485;51.536;3.816;2023-01-08T00:01:52;9.30;99.90
48686;DHT22;34485;51.536;3.816;2023-01-08T00:04:17;9.30;99.90
48686;DHT22;34485;51.536;3.816;2023-01-08T00:06:43;9.30;99.90
48686;DHT22;34485;51.536;3.816;2023-01-08T00:09:10;9.20;99.90
48686;DHT22;34485;51.536;3.816;2023-01-08T00:11:36;9.20;99.90
48686;DHT22;34485;51.536;3.816;2023-01-08T00:14:02;9.10;99.90
48686;DHT22;34485;51.536;3.816;2023-01-08T00:16:28;9.10;99.90
48686;DHT22;34485;51.536;3.816;2023-01-08T00:18:54;9.10;99.90
48686;DHT22;34485;51.536;3.816;2023-01-08T00:21:19;9.10;99.90
48686;DHT22;34485;51.536;3.816;2023-01-08T00:23:46;9.00;99.90
48686;DHT22;34485;51.536;3.816;2023-01-08T00:26:14;9.00;99.90
48686;DHT22;34485;51.536;3.816;2023-01-08T00:28:40;8.90;99.90
48686;DHT22;34485;51.536;3.816;2023-01-08T00:31:08;8.90;99.90
48686;DHT22;34485;51.536;3.816;2023-01-08T00:33:34;8.90;99.90
48686;DHT22;34485;51.536;3.816;2023-01-08T00:36:06;8.80;99.90
48686;DHT22;34485;51.536;3.816;2023-01-08T00:38:32;8.70;99.90
48686;DHT22;34485;51.536;3.816;2023-01-08T00:40:58;8.70;99.90
48686;DHT22;34485;51.536;3.816;2023-01-08T00:43:24;8.70;99.90
48686;DHT22;34485;51.536;3.816;2023-01-08T00:45:49;8.60;99.90
48686;DHT22;34485;51.536;3.816;2023-01-08T00:48:18;8.60;99.90
48686;DHT22;34485;51.536;3.816;2023-01-08T00:50:44;8.50;99.90
48686;DHT22;34485;51.536;3.816;2023-01-08T00:53:10;8.50;99.90
48686;DHT22;34485;51.536;3.816;2023-01-08T00:55:35;8.50;99.90
48686;DHT22;34485;51.536;3.816;2023-01-08T00:58:01;8.50;99.90
48686;DHT22;34485;51.536;3.816;2023-01-08T01:00:26;8.50;99.90
48686;DHT22;34485;51.536;3.816;2023-01-08T01:02:52;8.40;99.90
48686;DHT22;34485;51.536;3.816;2023-01-08T01:05:18;8.40;99.90
48686;DHT22;34485;51.536;3.816;2023-01-08T01:07:44;8.40;99.90
48686;DHT22;34485;51.536;3.816;2023-01-08T01:10:12;8.30;99.90
48686;DHT22;34485;51.536;3.816;2023-01-08T01:12:38;8.30;99.90
48686;DHT22;34485;51.536;3.816;2023-01-08T01:15:09;8.30;99.90
48686;DHT22;34485;51.536;3.816;2023-01-08T01:17:37;8.30;99.90
48686;DHT22;34485;51.536;3.816;2023-01-08T01:20:03;8.20;99.90
48686;DHT22;34485;51.536;3.816;2023-01-08T01:22:30;8.20;99.90
48686;DHT22;34485;51.536;3.816;2023-01-08T01:24:56;8.20;99.90
48686;DHT22;34485;51.536;3.816;2023-01-08T01:27:23;8.20;99.90
48686;DHT22;34485;51.536;3.816;2023-01-08T01:29:49;8.30;99.90
48686;DHT22;34485;51.536;3.816;2023-01-08T01:32:14;8.20;99.90
48686;DHT22;34485;51.536;3.816;2023-01-08T01:34:40;8.20;99.90
48686;DHT22;34485;51.536;3.816;2023-01-08T01:37:06;8.20;99.90
48686;DHT22;34485;51.536;3.816;2023-01-08T01:39:32;8.30;99.90
48686;DHT22;34485;51.536;3.816;2023-01-08T01:41:57;8.30;99.90
48686;DHT22;34485;51.536;3.816;2023-01-08T01:44:44;8.30;99.90
48686;DHT22;34485;51.536;3.816;2023-01-08T01:47:19;8.30;99.90
48686;DHT22;34485;51.536;3.816;2023-01-08T01:50:07;8.40;99.90
48686;DHT22;34485;51.536;3.816;2023-01-08T01:52:39;8.40;99.90
48686;DHT22;34485;51.536;3.816;2023-01-08T01:55:07;8.40;99.90
48686;DHT22;34485;51.536;3.816;2023-01-08T01:57:35;8.50;99.90
48686;DHT22;34485;51.536;3.816;2023-01-08T02:00:05;8.50;99.90
48686;DHT22;34485;51.536;3.816;2023-01-08T02:02:31;8.50;99.90
48686;DHT22;34485;51.536;3.816;2023-01-08T02:04:58;8.40;99.90
48686;DHT22;34485;51.536;3.816;2023-01-08T02:07:52;8.40;99.90
48686;DHT22;34485;51.536;3.816;2023-01-08T02:10:47;8.50;99.90
48686;DHT22;34485;51.536;3.816;2023-01-08T02:13:28;8.50;99.90
48686;DHT22;34485;51.536;3.816;2023-01-08T02:15:59;8.50;99.90
48686;DHT22;34485;51.536;3.816;2023-01-08T02:18:46;8.50;99.90
48686;DHT22;34485;51.536;3.816;2023-01-08T02:21:20;8.40;99.90
48686;DHT22;34485;51.536;3.816;2023-01-08T02:24:06;8.40;99.90
48686;DHT22;34485;51.536;3.816;2023-01-08T02:26:35;8.40;99.90
48686;DHT22;34485;51.536;3.816;2023-01-08T02:29:08;8.30;99.90
48686;DHT22;34485;51.536;3.816;2023-01-08T02:31:37;8.20;99.90
48686;DHT22;34485;51.536;3.816;2023-01-08T02:34:04;8.10;99.90
48686;DHT22;34485;51.536;3.816;2023-01-08T02:36:40;8.10;99.90
48686;DHT22;34485;51.536;3.816;2023-01-08T02:42:16;8.00;99.90
48686;DHT22;34485;51.536;3.816;2023-01-08T02:47:33;8.00;99.90
48686;DHT22;34485;51.536;3.816;2023-01-08T02:53:12;7.80;99.90
48686;DHT22;34485;51.536;3.816;2023-01-08T02:55:41;7.80;99.90
48686;DHT22;34485;51.536;3.816;2023-01-08T02:58:08;7.80;99.90
48686;DHT22;34485;51.536;3.816;2023-01-08T03:00:35;7.80;99.90
48686;DHT22;34485;51.536;3.816;2023-01-08T03:03:23;7.70;99.90
48686;DHT22;34485;51.536;3.816;2023-01-08T03:05:55;7.60;99.90
48686;DHT22;34485;51.536;3.816;2023-01-08T03:08:22;7.70;99.90
48686;DHT22;34485;51.536;3.816;2023-01-08T03:11:03;7.70;99.90
48686;DHT22;34485;51.536;3.816;2023-01-08T03:14:03;7.70;99.90
48686;DHT22;34485;51.536;3.816;2023-01-08T03:16:35;7.80;99.90
48686;DHT22;34485;51.536;3.816;2023-01-08T03:19:25;7.70;99.90
48686;DHT22;34485;51.536;3.816;2023-01-08T03:21:52;7.60;99.90
48686;DHT22;34485;51.536;3.816;2023-01-08T03:24:23;7.60;99.90
48686;DHT22;34485;51.536;3.816;2023-01-08T03:26:54;7.60;99.90
48686;DHT22;34485;51.536;3.816;2023-01-08T03:29:21;7.50;99.90
48686;DHT22;34485;51.536;3.816;2023-01-08T03:31:50;7.50;99.90
48686;DHT22;34485;51.536;3.816;2023-01-08T03:34:19;7.40;99.90
48686;DHT22;34485;51.536;3.816;2023-01-08T03:36:47;7.40;99.90
48686;DHT22;34485;51.536;3.816;2023-01-08T03:39:26;7.40;99.90
48686;DHT22;34485;51.536;3.816;2023-01-08T03:41:56;7.30;99.90
48686;DHT22;34485;51.536;3.816;2023-01-08T03:44:23;7.30;99.90
48686;DHT22;34485;51.536;3.816;2023-01-08T03:46:52;7.30;99.90
48686;DHT22;34485;51.536;3.816;2023-01-08T03:49:20;7.30;99.90
48686;DHT22;34485;51.536;3.816;2023-01-08T03:51:46;7.30;99.90
48686;DHT22;34485;51.536;3.816;2023-01-08T03:54:14;7.30;99.90
48686;DHT22;34485;51.536;3.816;2023-01-08T03:56:40;7.30;99.90
48686;DHT22;34485;51.536;3.816;2023-01-08T03:59:06;7.20;99.90
48686;DHT22;34485;51.536;3.816;2023-01-08T04:01:32;7.20;99.90
48686;DHT22;34485;51.536;3.816;2023-01-08T04:03:57;7.20;99.90
48686;DHT22;34485;51.536;3.816;2023-01-08T04:06:23;7.20;99.90
48686;DHT22;34485;51.536;3.816;2023-01-08T04:08:49;7.10;99.90
48686;DHT22;34485;51.536;3.816;2023-01-08T04:11:14;7.10;99.90
48686;DHT22;34485;51.536;3.816;2023-01-08T04:13:40;7.10;99.90
48686;DHT22;34485;51.536;3.816;2023-01-08T04:16:06;7.10;99.90
48686;DHT22;34485;51.536;3.816;2023-01-08T04:18:32;7.00;99.90
48686;DHT22;34485;51.536;3.816;2023-01-08T04:20:58;7.00;99.90
48686;DHT22;34485;51.536;3.816;2023-01-08T04:23:24;6.90;99.90
48686;DHT22;34485;51.536;3.816;2023-01-08T04:25:50;6.90;99.90
48686;DHT22;34485;51.536;3.816;2023-01-08T04:28:16;6.90;99.90
48686;DHT22;34485;51.536;3.816;2023-01-08T04:30:42;6.90;99.90
48686;DHT22;34485;51.536;3.816;2023-01-08T04:33:07;6.90;99.90
48686;DHT22;34485;51.536;3.816;2023-01-08T04:35:33;6.90;99.90
48686;DHT22;34485;51.536;3.816;2023-01-08T04:37:59;6.90;99.90
48686;DHT22;34485;51.536;3.816;2023-01-08T04:40:24;6.80;99.90
48686;DHT22;34485;51.536;3.816;2023-01-08T04:42:50;6.90;99.90
48686;DHT22;34485;51.536;3.816;2023-01-08T04:45:17;6.90;99.90
48686;DHT22;34485;51.536;3.816;2023-01-08T04:47:43;6.80;99.90
48686;DHT22;34485;51.536;3.816;2023-01-08T04:50:08;6.90;99.90
48686;DHT22;34485;51.536;3.816;2023-01-08T04:52:34;6.90;99.90
48686;DHT22;34485;51.536;3.816;2023-01-08T04:55:00;6.90;99.90
48686;DHT22;34485;51.536;3.816;2023-01-08T04:57:25;6.90;99.90
48686;DHT22;34485;51.536;3.816;2023-01-08T04:59:51;6.90;99.90
48686;DHT22;34485;51.536;3.816;2023-01-08T05:02:17;6.90;99.90
48686;DHT22;34485;51.536;3.816;2023-01-08T05:04:43;6.90;99.90
48686;DHT22;34485;51.536;3.816;2023-01-08T05:07:09;6.90;99.90
48686;DHT22;34485;51.536;3.816;2023-01-08T05:09:35;6.90;99.90
48686;DHT22;34485;51.536;3.816;2023-01-08T05:12:00;6.90;99.90
48686;DHT22;34485;51.536;3.816;2023-01-08T05:14:26;6.90;99.90
48686;DHT22;34485;51.536;3.816;2023-01-08T05:16:51;6.90;99.90
48686;DHT22;34485;51.536;3.816;2023-01-08T05:19:17;6.90;99.90
48686;DHT22;34485;51.536;3.816;2023-01-08T05:21:43;6.90;99.90
48686;DHT22;34485;51.536;3.816;2023-01-08T05:24:08;7.00;99.90
48686;DHT22;34485;51.536;3.816;2023-01-08T05:26:34;7.00;99.90
48686;DHT22;34485;51.536;3.816;2023-01-08T05:29:00;7.00;99.90
48686;DHT22;34485;51.536;3.816;2023-01-08T05:31:25;7.00;99.90
48686;DHT22;34485;51.536;3.816;2023-01-08T05:33:51;7.00;99.90
48686;DHT22;34485;51.536;3.816;2023-01-08T05:36:17;7.00;99.90
48686;DHT22;34485;51.536;3.816;2023-01-08T05:38:43;7.00;99.90
48686;DHT22;34485;51.536;3.816;2023-01-08T05:41:09;6.90;99.90
48686;DHT22;34485;51.536;3.816;2023-01-08T05:43:35;6.90;99.90
48686;DHT22;34485;51.536;3.816;2023-01-08T05:46:01;6.90;99.90
48686;DHT22;34485;51.536;3.816;2023-01-08T05:48:28;6.90;99.90
48686;DHT22;34485;51.536;3.816;2023-01-08T05:50:54;6.90;99.90
48686;DHT22;34485;51.536;3.816;2023-01-08T05:53:20;6.80;99.90
48686;DHT22;34485;51.536;3.816;2023-01-08T05:55:46;6.90;99.90
48686;DHT22;34485;51.536;3.816;2023-01-08T05:58:12;7.00;99.90
48686;DHT22;34485;51.536;3.816;2023-01-08T06:00:38;6.90;99.90
48686;DHT22;34485;51.536;3.816;2023-01-08T06:03:04;7.00;99.90
48686;DHT22;34485;51.536;3.816;2023-01-08T06:05:31;7.00;99.90
48686;DHT22;34485;51.536;3.816;2023-01-08T06:07:57;7.00;99.90
48686;DHT22;34485;51.536;3.816;2023-01-08T06:10:23;7.00;99.90
48686;DHT22;34485;51.536;3.816;2023-01-08T06:12:49;7.00;99.90
48686;DHT22;34485;51.536;3.816;2023-01-08T06:15:14;7.00;99.90
48686;DHT22;34485;51.536;3.816;2023-01-08T06:17:41;6.90;99.90
48686;DHT22;34485;51.536;3.816;2023-01-08T06:20:07;6.90;99.90
48686;DHT22;34485;51.536;3.816;2023-01-08T06:22:33;6.90;99.90
48686;DHT22;34485;51.536;3.816;2023-01-08T06:24:59;6.80;99.90
48686;DHT22;34485;51.536;3.816;2023-01-08T06:27:24;6.80;99.90
48686;DHT22;34485;51.536;3.816;2023-01-08T06:29:50;6.80;99.90
48686;DHT22;34485;51.536;3.816;2023-01-08T06:32:16;6.90;99.90
48686;DHT22;34485;51.536;3.816;2023-01-08T06:34:41;6.90;99.90
48686;DHT22;34485;51.536;3.816;2023-01-08T06:37:07;6.90;99.90
48686;DHT22;34485;51.536;3.816;2023-01-08T06:39:32;6.80;99.90
48686;DHT22;34485;51.536;3.816;2023-01-08T06:41:58;6.80;99.90
48686;DHT22;34485;51.536;3.816;2023-01-08T06:44:24;6.80;99.90
48686;DHT22;34485;51.536;3.816;2023-01-08T06:46:50;6.80;99.90
48686;DHT22;34485;51.536;3.816;2023-01-08T06:49:15;6.80;99.90
48686;DHT22;34485;51.536;3.816;2023-01-08T06:51:42;6.80;99.90
48686;DHT22;34485;51.536;3.816;2023-01-08T06:54:08;6.70;99.90
48686;DHT22;34485;51.536;3.816;2023-01-08T06:56:34;6.70;99.90
48686;DHT22;34485;51.536;3.816;2023-01-08T06:58:59;6.60;99.90
48686;DHT22;34485;51.536;3.816;2023-01-08T07:01:25;6.60;99.90
48686;DHT22;34485;51.536;3.816;2023-01-08T07:03:51;6.60;99.90
48686;DHT22;34485;51.536;3.816;2023-01-08T07:06:21;6.60;99.90
48686;DHT22;34485;51.536;3.816;2023-01-08T07:08:47;6.60;99.90
48686;DHT22;34485;51.536;3.816;2023-01-08T07:11:13;6.60;99.90
48686;DHT22;34485;51.536;3.816;2023-01-08T07:13:39;6.60;99.90
48686;DHT22;34485;51.536;3.816;2023-01-08T07:16:10;6.60;99.90
48686;DHT22;34485;51.536;3.816;2023-01-08T07:18:36;6.60;99.90
48686;DHT22;34485;51.536;3.816;2023-01-08T07:21:03;6.60;99.90
48686;DHT22;34485;51.536;3.816;2023-01-08T07:23:29;6.60;99.90
48686;DHT22;34485;51.536;3.816;2023-01-08T07:25:54;6.50;99.90
48686;DHT22;34485;51.536;3.816;2023-01-08T07:28:20;6.50;99.90
48686;DHT22;34485;51.536;3.816;2023-01-08T07:30:46;6.50;99.90
48686;DHT22;34485;51.536;3.816;2023-01-08T07:33:11;6.60;99.90
48686;DHT22;34485;51.536;3.816;2023-01-08T07:35:37;6.60;99.90
48686;DHT22;34485;51.536;3.816;2023-01-08T07:38:03;6.60;99.90
48686;DHT22;34485;51.536;3.816;2023-01-08T07:40:29;6.60;99.90
48686;DHT22;34485;51.536;3.816;2023-01-08T07:43:00;6.60;99.90
48686;DHT22;34485;51.536;3.816;2023-01-08T07:45:29;6.60;99.90
48686;DHT22;34485;51.536;3.816;2023-01-08T07:47:58;6.60;99.90
48686;DHT22;34485;51.536;3.816;2023-01-08T07:50:25;6.60;99.90
48686;DHT22;34485;51.536;3.816;2023-01-08T07:52:50;6.60;99.90
48686;DHT22;34485;51.536;3.816;2023-01-08T07:55:16;6.60;99.90
48686;DHT22;34485;51.536;3.816;2023-01-08T07:57:42;6.70;99.90
48686;DHT22;34485;51.536;3.816;2023-01-08T08:00:08;6.70;99.90
48686;DHT22;34485;51.536;3.816;2023-01-08T08:02:34;6.70;99.90
48686;DHT22;34485;51.536;3.816;2023-01-08T08:05:00;6.70;99.90
48686;DHT22;34485;51.536;3.816;2023-01-08T08:07:26;6.70;99.90
48686;DHT22;34485;51.536;3.816;2023-01-08T08:09:51;6.70;99.90
48686;DHT22;34485;51.536;3.816;2023-01-08T08:12:17;6.70;99.90
48686;DHT22;34485;51.536;3.816;2023-01-08T08:14:43;6.70;99.90
48686;DHT22;34485;51.536;3.816;2023-01-08T08:17:09;6.70;99.90
48686;DHT22;34485;51.536;3.816;2023-01-08T08:19:34;6.70;99.90
48686;DHT22;34485;51.536;3.816;2023-01-08T08:22:00;6.70;99.90
48686;DHT22;34485;51.536;3.816;2023-01-08T08:24:26;6.70;99.90
48686;DHT22;34485;51.536;3.816;2023-01-08T08:26:51;6.70;99.90
48686;DHT22;34485;51.536;3.816;2023-01-08T08:29:18;6.70;99.90
48686;DHT22;34485;51.536;3.816;2023-01-08T08:31:44;6.80;99.90
48686;DHT22;34485;51.536;3.816;2023-01-08T08:34:10;6.90;99.90
48686;DHT22;34485;51.536;3.816;2023-01-08T08:36:36;6.90;99.90
48686;DHT22;34485;51.536;3.816;2023-01-08T08:39:02;7.00;99.90
48686;DHT22;34485;51.536;3.816;2023-01-08T08:41:28;6.90;99.90
48686;DHT22;34485;51.536;3.816;2023-01-08T08:43:53;6.90;99.90
48686;DHT22;34485;51.536;3.816;2023-01-08T08:46:19;6.90;99.90
48686;DHT22;34485;51.536;3.816;2023-01-08T08:48:45;7.00;99.90
48686;DHT22;34485;51.536;3.816;2023-01-08T08:51:11;7.10;99.90
48686;DHT22;34485;51.536;3.816;2023-01-08T08:53:37;7.10;99.90
48686;DHT22;34485;51.536;3.816;2023-01-08T08:56:03;7.20;99.90
48686;DHT22;34485;51.536;3.816;2023-01-08T08:58:29;7.20;99.90
48686;DHT22;34485;51.536;3.816;2023-01-08T09:00:59;7.30;99.90
48686;DHT22;34485;51.536;3.816;2023-01-08T09:03:25;7.30;99.90
48686;DHT22;34485;51.536;3.816;2023-01-08T09:05:50;7.30;99.90
48686;DHT22;34485;51.536;3.816;2023-01-08T09:08:16;7.40;99.90
48686;DHT22;34485;51.536;3.816;2023-01-08T09:10:42;7.40;99.90
48686;DHT22;34485;51.536;3.816;2023-01-08T09:13:08;7.40;99.90
48686;DHT22;34485;51.536;3.816;2023-01-08T09:15:35;7.50;99.90
48686;DHT22;34485;51.536;3.816;2023-01-08T09:18:01;7.50;99.90
48686;DHT22;34485;51.536;3.816;2023-01-08T09:20:26;7.60;99.90
48686;DHT22;34485;51.536;3.816;2023-01-08T09:22:52;7.60;99.90
48686;DHT22;34485;51.536;3.816;2023-01-08T09:25:18;7.70;99.90
48686;DHT22;34485;51.536;3.816;2023-01-08T09:27:43;7.80;99.90
48686;DHT22;34485;51.536;3.816;2023-01-08T09:30:09;7.80;99.90
48686;DHT22;34485;51.536;3.816;2023-01-08T09:32:36;7.90;99.90
48686;DHT22;34485;51.536;3.816;2023-01-08T09:35:03;8.20;99.90
48686;DHT22;34485;51.536;3.816;2023-01-08T09:37:29;8.40;99.90
48686;DHT22;34485;51.536;3.816;2023-01-08T09:39:54;8.60;99.90
48686;DHT22;34485;51.536;3.816;2023-01-08T09:42:22;8.70;99.90
48686;DHT22;34485;51.536;3.816;2023-01-08T09:44:52;8.90;99.90
48686;DHT22;34485;51.536;3.816;2023-01-08T09:47:24;8.90;99.90
48686;DHT22;34485;51.536;3.816;2023-01-08T09:49:51;9.10;99.90
48686;DHT22;34485;51.536;3.816;2023-01-08T09:52:18;9.20;99.90
48686;DHT22;34485;51.536;3.816;2023-01-08T09:54:44;9.40;99.90
48686;DHT22;34485;51.536;3.816;2023-01-08T09:57:16;9.50;99.90
48686;DHT22;34485;51.536;3.816;2023-01-08T09:59:43;9.60;99.90
48686;DHT22;34485;51.536;3.816;2023-01-08T10:02:24;9.70;99.90
48686;DHT22;34485;51.536;3.816;2023-01-08T10:04:58;9.80;99.90
48686;DHT22;34485;51.536;3.816;2023-01-08T10:07:26;9.80;99.90
48686;DHT22;34485;51.536;3.816;2023-01-08T10:09:52;9.90;99.90
48686;DHT22;34485;51.536;3.816;2023-01-08T10:12:31;9.90;99.90
48686;DHT22;34485;51.536;3.816;2023-01-08T10:15:03;9.90;99.90
48686;DHT22;34485;51.536;3.816;2023-01-08T10:17:45;10.00;99.90
48686;DHT22;34485;51.536;3.816;2023-01-08T10:20:15;10.10;99.90
48686;DHT22;34485;51.536;3.816;2023-01-08T10:22:42;10.20;99.90
48686;DHT22;34485;51.536;3.816;2023-01-08T10:25:14;10.40;99.90
48686;DHT22;34485;51.536;3.816;2023-01-08T10:28:04;10.40;99.90
48686;DHT22;34485;51.536;3.816;2023-01-08T10:32:57;10.40;99.90
48686;DHT22;34485;51.536;3.816;2023-01-08T10:35:33;10.50;99.90
48686;DHT22;34485;51.536;3.816;2023-01-08T10:38:00;10.50;99.90
48686;DHT22;34485;51.536;3.816;2023-01-08T10:40:29;10.40;99.90
48686;DHT22;34485;51.536;3.816;2023-01-08T10:43:07;10.30;99.90
48686;DHT22;34485;51.536;3.816;2023-01-08T10:45:33;10.30;99.90
48686;DHT22;34485;51.536;3.816;2023-01-08T10:48:01;10.40;99.90
48686;DHT22;34485;51.536;3.816;2023-01-08T10:50:30;10.30;99.90
48686;DHT22;34485;51.536;3.816;2023-01-08T10:53:02;10.20;99.90
48686;DHT22;34485;51.536;3.816;2023-01-08T10:55:29;10.20;99.90
48686;DHT22;34485;51.536;3.816;2023-01-08T10:58:04;10.20;99.90
48686;DHT22;34485;51.536;3.816;2023-01-08T11:00:37;10.10;99.90
48686;DHT22;34485;51.536;3.816;2023-01-08T11:03:05;10.10;99.90
48686;DHT22;34485;51.536;3.816;2023-01-08T11:05:34;10.00;99.90
48686;DHT22;34485;51.536;3.816;2023-01-08T11:08:03;9.90;99.90
48686;DHT22;34485;51.536;3.816;2023-01-08T11:10:32;9.80;99.90
48686;DHT22;34485;51.536;3.816;2023-01-08T11:13:03;9.80;99.90
48686;DHT22;34485;51.536;3.816;2023-01-08T11:15:33;9.70;99.90
48686;DHT22;34485;51.536;3.816;2023-01-08T11:18:10;9.70;99.90
48686;DHT22;34485;51.536;3.816;2023-01-08T11:20:37;9.70;99.90
48686;DHT22;34485;51.536;3.816;2023-01-08T11:25:44;9.70;99.90
48686;DHT22;34485;51.536;3.816;2023-01-08T11:28:15;9.70;99.90
48686;DHT22;34485;51.536;3.816;2023-01-08T11:30:49;9.60;99.90
48686;DHT22;34485;51.536;3.816;2023-01-08T11:33:20;9.60;99.90
48686;DHT22;34485;51.536;3.816;2023-01-08T11:36:02;9.60;99.90
48686;DHT22;34485;51.536;3.816;2023-01-08T11:38:29;9.70;99.90
48686;DHT22;34485;51.536;3.816;2023-01-08T11:43:24;9.80;99.90
48686;DHT22;34485;51.536;3.816;2023-01-08T11:49:05;10.00;99.90
48686;DHT22;34485;51.536;3.816;2023-01-08T11:51:57;10.00;99.90
48686;DHT22;34485;51.536;3.816;2023-01-08T12:05:35;10.00;99.90
48686;DHT22;34485;51.536;3.816;2023-01-08T12:11:19;9.90;99.90
48686;DHT22;34485;51.536;3.816;2023-01-08T12:27:12;9.90;99.90
48686;DHT22;34485;51.536;3.816;2023-01-08T12:32:52;9.90;99.90
48686;DHT22;34485;51.536;3.816;2023-01-08T12:35:23;9.90;99.90
48686;DHT22;34485;51.536;3.816;2023-01-08T12:40:34;9.90;99.90
48686;DHT22;34485;51.536;3.816;2023-01-08T12:43:05;9.90;99.90
48686;DHT22;34485;51.536;3.816;2023-01-08T12:45:40;9.90;99.90
48686;DHT22;34485;51.536;3.816;2023-01-08T12:48:14;9.90;99.90
48686;DHT22;34485;51.536;3.816;2023-01-08T12:51:19;9.90;99.90
48686;DHT22;34485;51.536;3.816;2023-01-08T12:56:59;9.90;99.90
48686;DHT22;34485;51.536;3.816;2023-01-08T13:04:50;9.90;99.90
48686;DHT22;34485;51.536;3.816;2023-01-08T13:07:25;9.90;99.90
48686;DHT22;34485;51.536;3.816;2023-01-08T13:10:00;9.90;99.90
48686;DHT22;34485;51.536;3.816;2023-01-08T13:12:38;9.90;99.90
48686;DHT22;34485;51.536;3.816;2023-01-08T13:15:06;9.90;99.90
48686;DHT22;34485;51.536;3.816;2023-01-08T13:17:32;9.90;99.90
48686;DHT22;34485;51.536;3.816;2023-01-08T13:20:01;9.90;99.90
48686;DHT22;34485;51.536;3.816;2023-01-08T13:22:33;9.90;99.90
48686;DHT22;34485;51.536;3.816;2023-01-08T13:27:40;9.80;99.90
48686;DHT22;34485;51.536;3.816;2023-01-08T13:30:42;9.80;99.90
48686;DHT22;34485;51.536;3.816;2023-01-08T13:38:41;9.90;99.90
48686;DHT22;34485;51.536;3.816;2023-01-08T13:44:15;9.90;99.90
48686;DHT22;34485;51.536;3.816;2023-01-08T13:49:43;10.00;99.90
48686;DHT22;34485;51.536;3.816;2023-01-08T13:52:33;9.90;99.90
48686;DHT22;34485;51.536;3.816;2023-01-08T13:55:02;9.90;99.90
48686;DHT22;34485;51.536;3.816;2023-01-08T13:57:36;9.80;99.90
48686;DHT22;34485;51.536;3.816;2023-01-08T14:00:04;9.70;99.90
48686;DHT22;34485;51.536;3.816;2023-01-08T14:02:40;9.70;99.90
48686;DHT22;34485;51.536;3.816;2023-01-08T14:05:30;9.70;99.90
48686;DHT22;34485;51.536;3.816;2023-01-08T14:07:56;9.70;99.90
48686;DHT22;34485;51.536;3.816;2023-01-08T14:10:23;9.70;99.90
48686;DHT22;34485;51.536;3.816;2023-01-08T14:12:50;9.70;99.90
48686;DHT22;34485;51.536;3.816;2023-01-08T14:15:21;9.70;99.90
48686;DHT22;34485;51.536;3.816;2023-01-08T14:17:48;9.70;99.90
48686;DHT22;34485;51.536;3.816;2023-01-08T14:20:25;9.60;99.90
48686;DHT22;34485;51.536;3.816;2023-01-08T14:22:53;9.60;99.90
48686;DHT22;34485;51.536;3.816;2023-01-08T14:25:19;9.60;99.90
48686;DHT22;34485;51.536;3.816;2023-01-08T14:27:57;9.60;99.90
48686;DHT22;34485;51.536;3.816;2023-01-08T14:30:24;9.50;99.90
48686;DHT22;34485;51.536;3.816;2023-01-08T14:32:50;9.50;99.90
48686;DHT22;34485;51.536;3.816;2023-01-08T14:35:19;9.50;99.90
48686;DHT22;34485;51.536;3.816;2023-01-08T14:37:45;9.50;99.90
48686;DHT22;34485;51.536;3.816;2023-01-08T14:40:15;9.50;99.90
48686;DHT22;34485;51.536;3.816;2023-01-08T14:42:43;9.50;99.90
48686;DHT22;34485;51.536;3.816;2023-01-08T14:45:30;9.50;99.90
48686;DHT22;34485;51.536;3.816;2023-01-08T14:48:15;9.50;99.90
48686;DHT22;34485;51.536;3.816;2023-01-08T14:50:42;9.40;99.90
48686;DHT22;34485;51.536;3.816;2023-01-08T14:53:18;9.30;99.90
48686;DHT22;34485;51.536;3.816;2023-01-08T14:55:47;9.30;99.90
48686;DHT22;34485;51.536;3.816;2023-01-08T14:58:16;9.20;99.90
48686;DHT22;34485;51.536;3.816;2023-01-08T15:00:44;9.20;99.90
48686;DHT22;34485;51.536;3.816;2023-01-08T15:03:31;9.20;99.90
48686;DHT22;34485;51.536;3.816;2023-01-08T15:05:58;9.20;99.90
48686;DHT22;34485;51.536;3.816;2023-01-08T15:08:40;9.30;99.90
48686;DHT22;34485;51.536;3.816;2023-01-08T15:11:31;9.30;99.90
48686;DHT22;34485;51.536;3.816;2023-01-08T15:14:11;9.40;99.90
48686;DHT22;34485;51.536;3.816;2023-01-08T15:16:40;9.40;99.90
48686;DHT22;34485;51.536;3.816;2023-01-08T15:19:15;9.40;99.90
48686;DHT22;34485;51.536;3.816;2023-01-08T15:21:46;9.40;99.90
48686;DHT22;34485;51.536;3.816;2023-01-08T15:24:28;9.40;99.90
48686;DHT22;34485;51.536;3.816;2023-01-08T15:26:54;9.40;99.90
48686;DHT22;34485;51.536;3.816;2023-01-08T15:29:29;9.40;99.90
48686;DHT22;34485;51.536;3.816;2023-01-08T15:34:40;9.50;99.90
48686;DHT22;34485;51.536;3.816;2023-01-08T15:37:06;9.50;99.90
48686;DHT22;34485;51.536;3.816;2023-01-08T15:39:31;9.50;99.90
48686;DHT22;34485;51.536;3.816;2023-01-08T15:42:23;9.40;99.90
48686;DHT22;34485;51.536;3.816;2023-01-08T15:45:26;9.40;99.90
48686;DHT22;34485;51.536;3.816;2023-01-08T15:47:58;9.40;99.90
48686;DHT22;34485;51.536;3.816;2023-01-08T15:50:25;9.40;99.90
48686;DHT22;34485;51.536;3.816;2023-01-08T15:52:51;9.40;99.90
48686;DHT22;34485;51.536;3.816;2023-01-08T15:55:19;9.40;99.90
48686;DHT22;34485;51.536;3.816;2023-01-08T15:57:46;9.50;99.90
48686;DHT22;34485;51.536;3.816;2023-01-08T16:00:12;9.40;99.90
48686;DHT22;34485;51.536;3.816;2023-01-08T16:02:45;9.40;99.90
48686;DHT22;34485;51.536;3.816;2023-01-08T16:05:11;9.40;99.90
48686;DHT22;34485;51.536;3.816;2023-01-08T16:07:37;9.40;99.90
48686;DHT22;34485;51.536;3.816;2023-01-08T16:10:03;9.40;99.90
48686;DHT22;34485;51.536;3.816;2023-01-08T16:12:29;9.50;99.90
48686;DHT22;34485;51.536;3.816;2023-01-08T16:14:55;9.50;99.90
48686;DHT22;34485;51.536;3.816;2023-01-08T16:17:20;9.50;99.90
48686;DHT22;34485;51.536;3.816;2023-01-08T16:19:46;9.50;99.90
48686;DHT22;34485;51.536;3.816;2023-01-08T16:22:11;9.50;99.90
48686;DHT22;34485;51.536;3.816;2023-01-08T16:24:37;9.50;99.90
48686;DHT22;34485;51.536;3.816;2023-01-08T16:27:03;9.50;99.90
48686;DHT22;34485;51.536;3.816;2023-01-08T16:29:28;9.50;99.90
48686;DHT22;34485;51.536;3.816;2023-01-08T16:31:54;9.50;99.90
48686;DHT22;34485;51.536;3.816;2023-01-08T16:34:20;9.50;99.90
48686;DHT22;34485;51.536;3.816;2023-01-08T16:36:47;9.50;99.90
48686;DHT22;34485;51.536;3.816;2023-01-08T16:39:13;9.50;99.90
48686;DHT22;34485;51.536;3.816;2023-01-08T16:41:38;9.50;99.90
48686;DHT22;34485;51.536;3.816;2023-01-08T16:44:04;9.50;99.90
48686;DHT22;34485;51.536;3.816;2023-01-08T16:46:30;9.60;99.90
48686;DHT22;34485;51.536;3.816;2023-01-08T16:48:56;9.50;99.90
48686;DHT22;34485;51.536;3.816;2023-01-08T16:51:21;9.60;99.90
48686;DHT22;34485;51.536;3.816;2023-01-08T16:53:49;9.60;99.90
48686;DHT22;34485;51.536;3.816;2023-01-08T16:56:15;9.60;99.90
48686;DHT22;34485;51.536;3.816;2023-01-08T16:58:40;9.60;99.90
48686;DHT22;34485;51.536;3.816;2023-01-08T17:01:08;9.60;99.90
48686;DHT22;34485;51.536;3.816;2023-01-08T17:03:34;9.60;99.90
48686;DHT22;34485;51.536;3.816;2023-01-08T17:06:08;9.70;99.90
48686;DHT22;34485;51.536;3.816;2023-01-08T17:08:34;9.70;99.90
48686;DHT22;34485;51.536;3.816;2023-01-08T17:13:32;9.70;99.90
48686;DHT22;34485;51.536;3.816;2023-01-08T17:15:58;9.70;99.90
48686;DHT22;34485;51.536;3.816;2023-01-08T17:18:24;9.70;99.90